Terminal Aerodrome Forecast
Issued by NWS Jackson, MS

Home | Current Version | Previous Version | Text Only | Print | Product List | Glossary On
Versions: 1 2 3 4 5 6 7 8 9 10 11 12 13 14
000
FTUS44 KJAN 241700
TAFGLH
TAF
KGLH 241736Z 2418/2518 19012G19KT P6SM BKN250
     FM242300 20012G18KT P6SM VCTS BKN050CB
     FM250400 26012KT P6SM BKN100
     FM250700 28008KT P6SM SKC=

USA.gov is the U.S. government's official web portal to all federal, state and local government web resources and services.